sensor_id;sensor_type;location;lat;lon;timestamp;temperature;humidity
53800;DHT22;39708;53.210;6.948;2022-07-30T00:02:25;13.80;99.90
53800;DHT22;39708;53.210;6.948;2022-07-30T00:04:50;13.90;99.90
53800;DHT22;39708;53.210;6.948;2022-07-30T00:07:16;13.80;99.90
53800;DHT22;39708;53.210;6.948;2022-07-30T00:09:42;13.70;99.90
53800;DHT22;39708;53.210;6.948;2022-07-30T00:12:07;13.60;99.90
53800;DHT22;39708;53.210;6.948;2022-07-30T00:14:34;13.40;99.90
53800;DHT22;39708;53.210;6.948;2022-07-30T00:17:01;13.20;99.90
53800;DHT22;39708;53.210;6.948;2022-07-30T00:19:27;13.00;99.90
53800;DHT22;39708;53.210;6.948;2022-07-30T00:21:53;12.80;99.90
53800;DHT22;39708;53.210;6.948;2022-07-30T00:24:21;12.70;99.90
53800;DHT22;39708;53.210;6.948;2022-07-30T00:26:47;12.60;99.90
53800;DHT22;39708;53.210;6.948;2022-07-30T00:29:13;12.60;99.90
53800;DHT22;39708;53.210;6.948;2022-07-30T00:31:39;12.50;99.90
53800;DHT22;39708;53.210;6.948;2022-07-30T00:34:05;12.60;99.90
53800;DHT22;39708;53.210;6.948;2022-07-30T00:36:30;12.50;99.90
53800;DHT22;39708;53.210;6.948;2022-07-30T00:38:56;12.30;99.90
53800;DHT22;39708;53.210;6.948;2022-07-30T00:41:22;12.20;99.90
53800;DHT22;39708;53.210;6.948;2022-07-30T00:43:48;12.40;99.90
53800;DHT22;39708;53.210;6.948;2022-07-30T00:46:14;12.80;99.90
53800;DHT22;39708;53.210;6.948;2022-07-30T00:48:40;12.80;99.90
53800;DHT22;39708;53.210;6.948;2022-07-30T00:51:06;13.00;99.90
53800;DHT22;39708;53.210;6.948;2022-07-30T00:53:32;13.10;99.90
53800;DHT22;39708;53.210;6.948;2022-07-30T00:55:58;13.10;99.90
53800;DHT22;39708;53.210;6.948;2022-07-30T00:58:24;13.80;99.90
53800;DHT22;39708;53.210;6.948;2022-07-30T01:00:49;13.30;99.90
53800;DHT22;39708;53.210;6.948;2022-07-30T01:03:15;13.40;99.90
53800;DHT22;39708;53.210;6.948;2022-07-30T01:05:41;13.60;99.90
53800;DHT22;39708;53.210;6.948;2022-07-30T01:08:06;13.40;99.90
53800;DHT22;39708;53.210;6.948;2022-07-30T01:10:32;13.40;99.90
53800;DHT22;39708;53.210;6.948;2022-07-30T01:12:58;13.40;99.90
53800;DHT22;39708;53.210;6.948;2022-07-30T01:15:26;13.60;99.90
53800;DHT22;39708;53.210;6.948;2022-07-30T01:17:56;13.40;99.90
53800;DHT22;39708;53.210;6.948;2022-07-30T01:20:27;13.40;99.90
53800;DHT22;39708;53.210;6.948;2022-07-30T01:23:07;13.60;99.90
53800;DHT22;39708;53.210;6.948;2022-07-30T01:25:54;13.30;99.90
53800;DHT22;39708;53.210;6.948;2022-07-30T01:28:25;13.30;99.90
53800;DHT22;39708;53.210;6.948;2022-07-30T01:30:53;13.40;99.90
53800;DHT22;39708;53.210;6.948;2022-07-30T01:33:22;13.30;99.90
53800;DHT22;39708;53.210;6.948;2022-07-30T01:35:49;13.30;99.90
53800;DHT22;39708;53.210;6.948;2022-07-30T01:38:17;13.40;99.90
53800;DHT22;39708;53.210;6.948;2022-07-30T01:40:47;13.40;99.90
53800;DHT22;39708;53.210;6.948;2022-07-30T01:43:13;13.30;99.90
53800;DHT22;39708;53.210;6.948;2022-07-30T01:45:40;13.30;99.90
53800;DHT22;39708;53.210;6.948;2022-07-30T01:48:08;13.30;99.90
53800;DHT22;39708;53.210;6.948;2022-07-30T01:50:34;13.30;99.90
53800;DHT22;39708;53.210;6.948;2022-07-30T01:53:02;13.30;99.90
53800;DHT22;39708;53.210;6.948;2022-07-30T01:55:38;13.20;99.90
53800;DHT22;39708;53.210;6.948;2022-07-30T01:58:05;13.20;99.90
53800;DHT22;39708;53.210;6.948;2022-07-30T02:00:35;13.20;99.90
53800;DHT22;39708;53.210;6.948;2022-07-30T02:03:04;13.10;99.90
53800;DHT22;39708;53.210;6.948;2022-07-30T02:05:31;13.10;99.90
53800;DHT22;39708;53.210;6.948;2022-07-30T02:08:07;13.10;99.90
53800;DHT22;39708;53.210;6.948;2022-07-30T02:10:45;13.00;99.90
53800;DHT22;39708;53.210;6.948;2022-07-30T02:13:22;12.90;99.90
53800;DHT22;39708;53.210;6.948;2022-07-30T02:18:42;12.80;99.90
53800;DHT22;39708;53.210;6.948;2022-07-30T02:21:11;12.80;99.90
53800;DHT22;39708;53.210;6.948;2022-07-30T02:23:41;12.90;99.90
53800;DHT22;39708;53.210;6.948;2022-07-30T02:26:08;13.00;99.90
53800;DHT22;39708;53.210;6.948;2022-07-30T02:28:39;13.10;99.90
53800;DHT22;39708;53.210;6.948;2022-07-30T02:31:08;13.00;99.90
53800;DHT22;39708;53.210;6.948;2022-07-30T02:33:37;13.00;99.90
53800;DHT22;39708;53.210;6.948;2022-07-30T02:36:05;13.00;99.90
53800;DHT22;39708;53.210;6.948;2022-07-30T02:38:31;13.00;99.90
53800;DHT22;39708;53.210;6.948;2022-07-30T02:40:59;13.00;99.90
53800;DHT22;39708;53.210;6.948;2022-07-30T02:43:26;13.00;99.90
53800;DHT22;39708;53.210;6.948;2022-07-30T02:45:54;13.10;99.90
53800;DHT22;39708;53.210;6.948;2022-07-30T02:48:21;13.20;99.90
53800;DHT22;39708;53.210;6.948;2022-07-30T02:50:51;13.20;99.90
53800;DHT22;39708;53.210;6.948;2022-07-30T02:53:19;13.30;99.90
53800;DHT22;39708;53.210;6.948;2022-07-30T02:55:46;13.30;99.90
53800;DHT22;39708;53.210;6.948;2022-07-30T02:58:16;13.20;99.90
53800;DHT22;39708;53.210;6.948;2022-07-30T03:00:44;13.10;99.90
53800;DHT22;39708;53.210;6.948;2022-07-30T03:03:12;13.40;99.90
53800;DHT22;39708;53.210;6.948;2022-07-30T03:05:38;12.80;99.90
53800;DHT22;39708;53.210;6.948;2022-07-30T03:08:05;12.60;99.90
53800;DHT22;39708;53.210;6.948;2022-07-30T03:10:33;12.70;99.90
53800;DHT22;39708;53.210;6.948;2022-07-30T03:13:01;12.80;99.90
53800;DHT22;39708;53.210;6.948;2022-07-30T03:15:29;13.30;99.90
53800;DHT22;39708;53.210;6.948;2022-07-30T03:17:57;12.80;99.90
53800;DHT22;39708;53.210;6.948;2022-07-30T03:20:26;12.80;99.90
53800;DHT22;39708;53.210;6.948;2022-07-30T03:22:53;12.80;99.90
53800;DHT22;39708;53.210;6.948;2022-07-30T03:25:25;12.80;99.90
53800;DHT22;39708;53.210;6.948;2022-07-30T03:27:52;12.80;99.90
53800;DHT22;39708;53.210;6.948;2022-07-30T03:30:19;12.80;99.90
53800;DHT22;39708;53.210;6.948;2022-07-30T03:32:46;12.80;99.90
53800;DHT22;39708;53.210;6.948;2022-07-30T03:35:13;12.70;99.90
53800;DHT22;39708;53.210;6.948;2022-07-30T03:37:39;12.70;99.90
53800;DHT22;39708;53.210;6.948;2022-07-30T03:40:07;13.40;99.90
53800;DHT22;39708;53.210;6.948;2022-07-30T03:42:34;12.80;99.90
53800;DHT22;39708;53.210;6.948;2022-07-30T03:45:02;12.80;99.90
53800;DHT22;39708;53.210;6.948;2022-07-30T03:47:31;12.80;99.90
53800;DHT22;39708;53.210;6.948;2022-07-30T03:49:57;12.80;99.90
53800;DHT22;39708;53.210;6.948;2022-07-30T03:52:24;12.80;99.90
53800;DHT22;39708;53.210;6.948;2022-07-30T03:54:50;12.70;99.90
53800;DHT22;39708;53.210;6.948;2022-07-30T03:57:16;12.70;99.90
53800;DHT22;39708;53.210;6.948;2022-07-30T03:59:42;12.80;99.90
53800;DHT22;39708;53.210;6.948;2022-07-30T04:02:08;12.80;99.90
53800;DHT22;39708;53.210;6.948;2022-07-30T04:04:33;12.90;99.90
53800;DHT22;39708;53.210;6.948;2022-07-30T04:06:59;12.90;99.90
53800;DHT22;39708;53.210;6.948;2022-07-30T04:09:24;13.00;99.90
53800;DHT22;39708;53.210;6.948;2022-07-30T04:11:50;13.00;99.90
53800;DHT22;39708;53.210;6.948;2022-07-30T04:14:16;13.30;99.90
53800;DHT22;39708;53.210;6.948;2022-07-30T04:17:20;13.20;99.90
53800;DHT22;39708;53.210;6.948;2022-07-30T04:19:52;13.00;99.90
53800;DHT22;39708;53.210;6.948;2022-07-30T04:22:22;13.00;99.90
53800;DHT22;39708;53.210;6.948;2022-07-30T04:24:49;13.00;99.90
53800;DHT22;39708;53.210;6.948;2022-07-30T04:27:17;12.90;99.90
53800;DHT22;39708;53.210;6.948;2022-07-30T04:29:43;12.90;99.90
53800;DHT22;39708;53.210;6.948;2022-07-30T04:32:09;12.90;99.90
53800;DHT22;39708;53.210;6.948;2022-07-30T04:34:35;13.50;99.90
53800;DHT22;39708;53.210;6.948;2022-07-30T04:37:00;13.20;99.90
53800;DHT22;39708;53.210;6.948;2022-07-30T04:39:26;13.10;99.90
53800;DHT22;39708;53.210;6.948;2022-07-30T04:41:52;13.30;99.90
53800;DHT22;39708;53.210;6.948;2022-07-30T04:44:18;13.60;99.90
53800;DHT22;39708;53.210;6.948;2022-07-30T04:46:45;13.90;99.90
53800;DHT22;39708;53.210;6.948;2022-07-30T04:49:11;14.10;99.90
53800;DHT22;39708;53.210;6.948;2022-07-30T04:51:38;14.40;99.90
53800;DHT22;39708;53.210;6.948;2022-07-30T04:54:08;14.80;99.90
53800;DHT22;39708;53.210;6.948;2022-07-30T04:56:35;15.10;99.90
53800;DHT22;39708;53.210;6.948;2022-07-30T04:59:02;15.30;99.90
53800;DHT22;39708;53.210;6.948;2022-07-30T05:01:35;15.50;99.90
53800;DHT22;39708;53.210;6.948;2022-07-30T05:04:02;15.40;99.90
53800;DHT22;39708;53.210;6.948;2022-07-30T05:06:29;15.30;99.90
53800;DHT22;39708;53.210;6.948;2022-07-30T05:08:56;15.10;99.90
53800;DHT22;39708;53.210;6.948;2022-07-30T05:11:22;15.00;99.90
53800;DHT22;39708;53.210;6.948;2022-07-30T05:13:48;14.90;99.90
53800;DHT22;39708;53.210;6.948;2022-07-30T05:16:14;14.90;99.90
53800;DHT22;39708;53.210;6.948;2022-07-30T05:18:40;14.90;99.90
53800;DHT22;39708;53.210;6.948;2022-07-30T05:21:05;14.80;99.90
53800;DHT22;39708;53.210;6.948;2022-07-30T05:23:31;14.90;99.90
53800;DHT22;39708;53.210;6.948;2022-07-30T05:25:57;14.90;99.90
53800;DHT22;39708;53.210;6.948;2022-07-30T05:28:23;14.80;99.90
53800;DHT22;39708;53.210;6.948;2022-07-30T05:30:51;14.80;99.90
53800;DHT22;39708;53.210;6.948;2022-07-30T05:33:17;15.00;99.90
53800;DHT22;39708;53.210;6.948;2022-07-30T05:35:43;15.20;99.90
53800;DHT22;39708;53.210;6.948;2022-07-30T05:38:09;15.30;99.90
53800;DHT22;39708;53.210;6.948;2022-07-30T05:40:34;15.50;99.90
53800;DHT22;39708;53.210;6.948;2022-07-30T05:43:00;15.70;99.90
53800;DHT22;39708;53.210;6.948;2022-07-30T05:45:25;15.90;99.90
53800;DHT22;39708;53.210;6.948;2022-07-30T05:47:51;16.00;99.90
53800;DHT22;39708;53.210;6.948;2022-07-30T05:50:17;16.20;99.90
53800;DHT22;39708;53.210;6.948;2022-07-30T05:52:42;16.30;99.90
53800;DHT22;39708;53.210;6.948;2022-07-30T05:55:09;16.40;99.90
53800;DHT22;39708;53.210;6.948;2022-07-30T05:57:35;16.60;99.90
53800;DHT22;39708;53.210;6.948;2022-07-30T06:00:04;16.50;99.90
53800;DHT22;39708;53.210;6.948;2022-07-30T06:02:30;16.40;99.90
53800;DHT22;39708;53.210;6.948;2022-07-30T06:04:56;16.40;99.90
53800;DHT22;39708;53.210;6.948;2022-07-30T06:07:21;16.50;99.90
53800;DHT22;39708;53.210;6.948;2022-07-30T06:09:47;16.90;99.90
53800;DHT22;39708;53.210;6.948;2022-07-30T06:12:13;17.10;99.90
53800;DHT22;39708;53.210;6.948;2022-07-30T06:14:39;17.30;99.90
53800;DHT22;39708;53.210;6.948;2022-07-30T06:17:05;17.40;99.90
53800;DHT22;39708;53.210;6.948;2022-07-30T06:19:30;17.30;99.90
53800;DHT22;39708;53.210;6.948;2022-07-30T06:21:56;17.20;99.90
53800;DHT22;39708;53.210;6.948;2022-07-30T06:24:22;17.20;99.90
53800;DHT22;39708;53.210;6.948;2022-07-30T06:26:47;17.10;99.90
53800;DHT22;39708;53.210;6.948;2022-07-30T06:29:13;17.20;99.90
53800;DHT22;39708;53.210;6.948;2022-07-30T06:31:38;17.20;99.90
53800;DHT22;39708;53.210;6.948;2022-07-30T06:34:05;17.40;99.90
53800;DHT22;39708;53.210;6.948;2022-07-30T06:36:31;17.40;99.90
53800;DHT22;39708;53.210;6.948;2022-07-30T06:38:57;17.50;99.90
53800;DHT22;39708;53.210;6.948;2022-07-30T06:41:22;17.60;99.90
53800;DHT22;39708;53.210;6.948;2022-07-30T06:43:48;17.70;99.90
53800;DHT22;39708;53.210;6.948;2022-07-30T06:46:15;17.70;99.90
53800;DHT22;39708;53.210;6.948;2022-07-30T06:48:41;17.80;99.90
53800;DHT22;39708;53.210;6.948;2022-07-30T06:51:07;17.90;99.90
53800;DHT22;39708;53.210;6.948;2022-07-30T06:53:32;18.00;99.90
53800;DHT22;39708;53.210;6.948;2022-07-30T06:55:58;18.10;99.90
53800;DHT22;39708;53.210;6.948;2022-07-30T06:58:24;18.20;99.90
53800;DHT22;39708;53.210;6.948;2022-07-30T07:00:49;18.30;99.90
53800;DHT22;39708;53.210;6.948;2022-07-30T07:03:15;18.50;99.90
53800;DHT22;39708;53.210;6.948;2022-07-30T07:05:41;18.80;99.90
53800;DHT22;39708;53.210;6.948;2022-07-30T07:08:06;19.00;99.90
53800;DHT22;39708;53.210;6.948;2022-07-30T07:10:32;19.20;99.90
53800;DHT22;39708;53.210;6.948;2022-07-30T07:12:58;19.30;99.90
53800;DHT22;39708;53.210;6.948;2022-07-30T07:15:25;19.30;99.90
53800;DHT22;39708;53.210;6.948;2022-07-30T07:17:51;19.20;99.90
53800;DHT22;39708;53.210;6.948;2022-07-30T07:20:17;19.20;99.90
53800;DHT22;39708;53.210;6.948;2022-07-30T07:22:43;19.20;99.90
53800;DHT22;39708;53.210;6.948;2022-07-30T07:25:09;19.10;99.90
53800;DHT22;39708;53.210;6.948;2022-07-30T07:27:35;19.10;99.90
53800;DHT22;39708;53.210;6.948;2022-07-30T07:30:01;19.30;99.90
53800;DHT22;39708;53.210;6.948;2022-07-30T07:32:27;19.20;99.90
53800;DHT22;39708;53.210;6.948;2022-07-30T07:34:52;19.30;99.90
53800;DHT22;39708;53.210;6.948;2022-07-30T07:37:18;19.30;99.90
53800;DHT22;39708;53.210;6.948;2022-07-30T07:39:44;19.30;99.90
53800;DHT22;39708;53.210;6.948;2022-07-30T07:42:09;19.30;99.90
53800;DHT22;39708;53.210;6.948;2022-07-30T07:44:35;19.40;99.90
53800;DHT22;39708;53.210;6.948;2022-07-30T07:47:00;19.40;99.90
53800;DHT22;39708;53.210;6.948;2022-07-30T07:49:26;19.40;99.90
53800;DHT22;39708;53.210;6.948;2022-07-30T07:51:52;19.50;99.90
53800;DHT22;39708;53.210;6.948;2022-07-30T07:54:18;19.60;99.90
53800;DHT22;39708;53.210;6.948;2022-07-30T07:56:44;19.60;99.90
53800;DHT22;39708;53.210;6.948;2022-07-30T07:59:10;19.60;99.90
53800;DHT22;39708;53.210;6.948;2022-07-30T08:01:36;19.60;99.90
53800;DHT22;39708;53.210;6.948;2022-07-30T08:04:01;19.60;99.90
53800;DHT22;39708;53.210;6.948;2022-07-30T08:06:27;19.90;99.90
53800;DHT22;39708;53.210;6.948;2022-07-30T08:08:53;19.80;99.90
53800;DHT22;39708;53.210;6.948;2022-07-30T08:11:19;19.80;99.90
53800;DHT22;39708;53.210;6.948;2022-07-30T08:13:45;19.80;99.90
53800;DHT22;39708;53.210;6.948;2022-07-30T08:16:11;19.80;99.90
53800;DHT22;39708;53.210;6.948;2022-07-30T08:18:39;19.90;99.90
53800;DHT22;39708;53.210;6.948;2022-07-30T08:21:05;19.90;99.90
53800;DHT22;39708;53.210;6.948;2022-07-30T08:23:30;20.00;99.90
53800;DHT22;39708;53.210;6.948;2022-07-30T08:25:57;20.10;99.90
53800;DHT22;39708;53.210;6.948;2022-07-30T08:28:23;20.20;99.90
53800;DHT22;39708;53.210;6.948;2022-07-30T08:30:49;20.20;99.90
53800;DHT22;39708;53.210;6.948;2022-07-30T08:33:15;20.40;99.90
53800;DHT22;39708;53.210;6.948;2022-07-30T08:35:40;20.50;99.90
53800;DHT22;39708;53.210;6.948;2022-07-30T08:38:06;20.60;99.90
53800;DHT22;39708;53.210;6.948;2022-07-30T08:40:34;20.70;99.90
53800;DHT22;39708;53.210;6.948;2022-07-30T08:43:02;20.80;99.90
53800;DHT22;39708;53.210;6.948;2022-07-30T08:45:30;20.80;99.90
53800;DHT22;39708;53.210;6.948;2022-07-30T08:47:56;20.90;99.90
53800;DHT22;39708;53.210;6.948;2022-07-30T08:50:24;21.00;99.90
53800;DHT22;39708;53.210;6.948;2022-07-30T08:52:49;21.00;99.90
53800;DHT22;39708;53.210;6.948;2022-07-30T08:55:15;21.10;99.90
53800;DHT22;39708;53.210;6.948;2022-07-30T08:57:42;21.20;99.90
53800;DHT22;39708;53.210;6.948;2022-07-30T09:00:08;21.30;99.90
53800;DHT22;39708;53.210;6.948;2022-07-30T09:02:35;21.50;99.90
53800;DHT22;39708;53.210;6.948;2022-07-30T09:05:00;21.80;99.90
53800;DHT22;39708;53.210;6.948;2022-07-30T09:07:26;22.20;99.90
53800;DHT22;39708;53.210;6.948;2022-07-30T09:09:52;22.90;99.90
53800;DHT22;39708;53.210;6.948;2022-07-30T09:12:41;23.20;99.90
53800;DHT22;39708;53.210;6.948;2022-07-30T09:15:27;23.90;99.90
53800;DHT22;39708;53.210;6.948;2022-07-30T09:17:57;24.20;99.90
53800;DHT22;39708;53.210;6.948;2022-07-30T09:20:29;24.40;99.90
53800;DHT22;39708;53.210;6.948;2022-07-30T09:22:58;24.50;99.90
53800;DHT22;39708;53.210;6.948;2022-07-30T09:28:04;24.70;99.90
53800;DHT22;39708;53.210;6.948;2022-07-30T09:30:44;24.80;99.90
53800;DHT22;39708;53.210;6.948;2022-07-30T09:33:10;24.80;99.90
53800;DHT22;39708;53.210;6.948;2022-07-30T09:35:36;25.00;99.90
53800;DHT22;39708;53.210;6.948;2022-07-30T09:38:02;24.60;99.90
53800;DHT22;39708;53.210;6.948;2022-07-30T09:40:30;24.60;99.90
53800;DHT22;39708;53.210;6.948;2022-07-30T09:43:06;24.60;99.90
53800;DHT22;39708;53.210;6.948;2022-07-30T09:45:33;24.10;99.90
53800;DHT22;39708;53.210;6.948;2022-07-30T09:47:59;24.10;99.90
53800;DHT22;39708;53.210;6.948;2022-07-30T09:50:25;24.30;99.90
53800;DHT22;39708;53.210;6.948;2022-07-30T09:52:53;24.20;99.90
53800;DHT22;39708;53.210;6.948;2022-07-30T09:55:33;24.40;99.90
53800;DHT22;39708;53.210;6.948;2022-07-30T09:58:09;24.40;99.90
53800;DHT22;39708;53.210;6.948;2022-07-30T10:00:36;24.80;99.90
53800;DHT22;39708;53.210;6.948;2022-07-30T10:03:17;25.10;99.90
53800;DHT22;39708;53.210;6.948;2022-07-30T10:05:57;25.30;99.90
53800;DHT22;39708;53.210;6.948;2022-07-30T10:08:46;25.30;99.90
53800;DHT22;39708;53.210;6.948;2022-07-30T10:11:16;25.40;99.90
53800;DHT22;39708;53.210;6.948;2022-07-30T10:13:43;24.90;99.90
53800;DHT22;39708;53.210;6.948;2022-07-30T10:16:09;24.70;99.90
53800;DHT22;39708;53.210;6.948;2022-07-30T10:18:35;25.00;99.90
53800;DHT22;39708;53.210;6.948;2022-07-30T10:21:03;25.30;99.90
53800;DHT22;39708;53.210;6.948;2022-07-30T10:23:29;25.50;99.90
53800;DHT22;39708;53.210;6.948;2022-07-30T10:26:00;25.50;99.90
53800;DHT22;39708;53.210;6.948;2022-07-30T10:28:27;25.70;99.90
53800;DHT22;39708;53.210;6.948;2022-07-30T10:30:54;25.70;99.90
53800;DHT22;39708;53.210;6.948;2022-07-30T10:33:28;25.30;99.90
53800;DHT22;39708;53.210;6.948;2022-07-30T10:35:54;25.10;99.90
53800;DHT22;39708;53.210;6.948;2022-07-30T10:38:23;24.80;99.90
53800;DHT22;39708;53.210;6.948;2022-07-30T10:41:16;24.60;99.90
53800;DHT22;39708;53.210;6.948;2022-07-30T10:49:16;23.90;99.90
53800;DHT22;39708;53.210;6.948;2022-07-30T10:51:46;24.10;99.90
53800;DHT22;39708;53.210;6.948;2022-07-30T10:54:51;24.30;99.90
53800;DHT22;39708;53.210;6.948;2022-07-30T10:57:19;24.30;99.90
53800;DHT22;39708;53.210;6.948;2022-07-30T11:02:21;24.40;99.90
53800;DHT22;39708;53.210;6.948;2022-07-30T11:04:48;24.20;99.90
53800;DHT22;39708;53.210;6.948;2022-07-30T11:09:45;23.40;99.90
53800;DHT22;39708;53.210;6.948;2022-07-30T11:12:12;23.00;99.90
53800;DHT22;39708;53.210;6.948;2022-07-30T11:17:14;22.80;99.90
53800;DHT22;39708;53.210;6.948;2022-07-30T11:22:35;22.50;99.90
53800;DHT22;39708;53.210;6.948;2022-07-30T11:27:49;22.60;99.90
53800;DHT22;39708;53.210;6.948;2022-07-30T11:32:55;22.50;99.90
53800;DHT22;39708;53.210;6.948;2022-07-30T11:35:25;22.80;99.90
53800;DHT22;39708;53.210;6.948;2022-07-30T11:40:23;23.70;99.90
53800;DHT22;39708;53.210;6.948;2022-07-30T11:42:50;24.10;99.90
53800;DHT22;39708;53.210;6.948;2022-07-30T11:47:55;24.30;99.90
53800;DHT22;39708;53.210;6.948;2022-07-30T11:50:31;24.30;99.90
53800;DHT22;39708;53.210;6.948;2022-07-30T11:53:02;24.60;99.90
53800;DHT22;39708;53.210;6.948;2022-07-30T11:55:36;24.80;99.90
53800;DHT22;39708;53.210;6.948;2022-07-30T11:58:05;24.80;99.80
53800;DHT22;39708;53.210;6.948;2022-07-30T12:00:38;24.90;99.90
53800;DHT22;39708;53.210;6.948;2022-07-30T12:03:12;25.00;99.20
53800;DHT22;39708;53.210;6.948;2022-07-30T12:05:39;24.90;99.60
53800;DHT22;39708;53.210;6.948;2022-07-30T12:08:05;24.90;98.60
53800;DHT22;39708;53.210;6.948;2022-07-30T12:10:31;25.10;99.90
53800;DHT22;39708;53.210;6.948;2022-07-30T12:13:11;25.30;98.40
53800;DHT22;39708;53.210;6.948;2022-07-30T12:15:39;25.50;99.10
53800;DHT22;39708;53.210;6.948;2022-07-30T12:18:07;25.80;98.80
53800;DHT22;39708;53.210;6.948;2022-07-30T12:20:33;26.10;99.00
53800;DHT22;39708;53.210;6.948;2022-07-30T12:22:59;26.20;96.90
53800;DHT22;39708;53.210;6.948;2022-07-30T12:25:27;26.30;95.10
53800;DHT22;39708;53.210;6.948;2022-07-30T12:27:53;26.40;97.70
53800;DHT22;39708;53.210;6.948;2022-07-30T12:30:19;26.00;96.90
53800;DHT22;39708;53.210;6.948;2022-07-30T12:32:46;25.70;97.90
53800;DHT22;39708;53.210;6.948;2022-07-30T12:35:12;25.60;99.10
53800;DHT22;39708;53.210;6.948;2022-07-30T12:37:38;25.30;99.50
53800;DHT22;39708;53.210;6.948;2022-07-30T12:40:10;25.00;98.70
53800;DHT22;39708;53.210;6.948;2022-07-30T12:42:36;25.00;99.90
53800;DHT22;39708;53.210;6.948;2022-07-30T12:45:28;24.70;99.90
53800;DHT22;39708;53.210;6.948;2022-07-30T12:47:55;24.70;99.90
53800;DHT22;39708;53.210;6.948;2022-07-30T12:50:20;24.50;99.90
53800;DHT22;39708;53.210;6.948;2022-07-30T12:52:50;24.40;99.90
53800;DHT22;39708;53.210;6.948;2022-07-30T12:55:17;24.70;99.90
53800;DHT22;39708;53.210;6.948;2022-07-30T12:58:04;25.00;99.90
53800;DHT22;39708;53.210;6.948;2022-07-30T13:00:44;25.20;99.90
53800;DHT22;39708;53.210;6.948;2022-07-30T13:03:25;25.20;99.90
53800;DHT22;39708;53.210;6.948;2022-07-30T13:05:55;24.90;99.90
53800;DHT22;39708;53.210;6.948;2022-07-30T13:11:10;24.80;99.90
53800;DHT22;39708;53.210;6.948;2022-07-30T13:13:36;25.10;99.90
53800;DHT22;39708;53.210;6.948;2022-07-30T13:16:04;25.50;97.10
53800;DHT22;39708;53.210;6.948;2022-07-30T13:18:32;25.60;98.00
53800;DHT22;39708;53.210;6.948;2022-07-30T13:20:58;25.90;96.10
53800;DHT22;39708;53.210;6.948;2022-07-30T13:23:27;26.00;97.70
53800;DHT22;39708;53.210;6.948;2022-07-30T13:25:54;26.10;98.00
53800;DHT22;39708;53.210;6.948;2022-07-30T13:28:20;25.90;96.90
53800;DHT22;39708;53.210;6.948;2022-07-30T13:30:46;26.00;98.30
53800;DHT22;39708;53.210;6.948;2022-07-30T13:33:12;26.00;99.10
53800;DHT22;39708;53.210;6.948;2022-07-30T13:35:38;25.90;97.40
53800;DHT22;39708;53.210;6.948;2022-07-30T13:38:04;25.50;97.80
53800;DHT22;39708;53.210;6.948;2022-07-30T13:40:31;25.50;98.90
53800;DHT22;39708;53.210;6.948;2022-07-30T13:43:00;25.30;98.30
53800;DHT22;39708;53.210;6.948;2022-07-30T13:45:26;25.40;99.90
53800;DHT22;39708;53.210;6.948;2022-07-30T13:47:51;25.40;98.60
53800;DHT22;39708;53.210;6.948;2022-07-30T13:50:17;25.30;97.50
53800;DHT22;39708;53.210;6.948;2022-07-30T13:52:43;25.20;97.90
53800;DHT22;39708;53.210;6.948;2022-07-30T13:55:09;25.00;98.50
53800;DHT22;39708;53.210;6.948;2022-07-30T13:57:35;25.10;99.90
53800;DHT22;39708;53.210;6.948;2022-07-30T14:00:01;25.00;99.80
53800;DHT22;39708;53.210;6.948;2022-07-30T14:02:27;24.80;99.40
53800;DHT22;39708;53.210;6.948;2022-07-30T14:04:52;24.80;99.90
53800;DHT22;39708;53.210;6.948;2022-07-30T14:07:18;24.90;99.30
53800;DHT22;39708;53.210;6.948;2022-07-30T14:09:44;25.00;99.60
53800;DHT22;39708;53.210;6.948;2022-07-30T14:12:11;24.90;99.10
53800;DHT22;39708;53.210;6.948;2022-07-30T14:14:37;25.00;99.90
53800;DHT22;39708;53.210;6.948;2022-07-30T14:17:03;25.10;98.30
53800;DHT22;39708;53.210;6.948;2022-07-30T14:19:29;25.20;99.60
53800;DHT22;39708;53.210;6.948;2022-07-30T14:21:54;25.10;98.10
53800;DHT22;39708;53.210;6.948;2022-07-30T14:24:21;25.10;98.60
53800;DHT22;39708;53.210;6.948;2022-07-30T14:26:47;25.10;98.80
53800;DHT22;39708;53.210;6.948;2022-07-30T14:29:13;24.90;99.00
53800;DHT22;39708;53.210;6.948;2022-07-30T14:31:39;24.70;99.00
53800;DHT22;39708;53.210;6.948;2022-07-30T14:34:05;24.60;99.90
53800;DHT22;39708;53.210;6.948;2022-07-30T14:36:31;24.60;99.90
53800;DHT22;39708;53.210;6.948;2022-07-30T14:38:56;24.80;99.80
53800;DHT22;39708;53.210;6.948;2022-07-30T14:41:23;24.80;98.90
53800;DHT22;39708;53.210;6.948;2022-07-30T14:43:49;24.60;98.50
53800;DHT22;39708;53.210;6.948;2022-07-30T14:46:14;24.70;99.90
53800;DHT22;39708;53.210;6.948;2022-07-30T14:48:41;24.50;99.80
53800;DHT22;39708;53.210;6.948;2022-07-30T14:51:07;24.50;99.10
53800;DHT22;39708;53.210;6.948;2022-07-30T14:53:32;24.40;99.90
53800;DHT22;39708;53.210;6.948;2022-07-30T14:55:58;24.40;99.40
53800;DHT22;39708;53.210;6.948;2022-07-30T14:58:24;24.40;98.70
53800;DHT22;39708;53.210;6.948;2022-07-30T15:00:50;24.40;98.80
53800;DHT22;39708;53.210;6.948;2022-07-30T15:03:16;24.40;98.40
53800;DHT22;39708;53.210;6.948;2022-07-30T15:05:42;24.30;99.90
53800;DHT22;39708;53.210;6.948;2022-07-30T15:08:07;24.30;99.90
53800;DHT22;39708;53.210;6.948;2022-07-30T15:10:33;24.40;99.00
53800;DHT22;39708;53.210;6.948;2022-07-30T15:12:59;24.40;95.10
53800;DHT22;39708;53.210;6.948;2022-07-30T15:15:25;24.60;99.70
53800;DHT22;39708;53.210;6.948;2022-07-30T15:17:50;24.60;98.50
53800;DHT22;39708;53.210;6.948;2022-07-30T15:20:16;24.70;99.00
53800;DHT22;39708;53.210;6.948;2022-07-30T15:22:42;24.70;99.00
53800;DHT22;39708;53.210;6.948;2022-07-30T15:25:07;24.70;99.50
53800;DHT22;39708;53.210;6.948;2022-07-30T15:27:33;24.70;99.90
53800;DHT22;39708;53.210;6.948;2022-07-30T15:29:59;24.60;99.90
53800;DHT22;39708;53.210;6.948;2022-07-30T15:32:25;24.40;98.90
53800;DHT22;39708;53.210;6.948;2022-07-30T15:34:50;24.10;98.30
53800;DHT22;39708;53.210;6.948;2022-07-30T15:37:16;24.20;99.90
53800;DHT22;39708;53.210;6.948;2022-07-30T15:39:42;24.20;99.70
53800;DHT22;39708;53.210;6.948;2022-07-30T15:42:07;24.30;99.80
53800;DHT22;39708;53.210;6.948;2022-07-30T15:44:33;24.10;99.30
53800;DHT22;39708;53.210;6.948;2022-07-30T15:47:00;24.20;99.50
53800;DHT22;39708;53.210;6.948;2022-07-30T15:49:26;24.10;99.20
53800;DHT22;39708;53.210;6.948;2022-07-30T15:51:52;24.10;98.30
53800;DHT22;39708;53.210;6.948;2022-07-30T15:54:19;24.10;97.70
53800;DHT22;39708;53.210;6.948;2022-07-30T15:56:47;23.80;97.00
53800;DHT22;39708;53.210;6.948;2022-07-30T15:59:14;23.90;98.90
53800;DHT22;39708;53.210;6.948;2022-07-30T16:01:40;23.80;97.30
53800;DHT22;39708;53.210;6.948;2022-07-30T16:04:05;23.80;97.80
53800;DHT22;39708;53.210;6.948;2022-07-30T16:06:31;23.70;97.50
53800;DHT22;39708;53.210;6.948;2022-07-30T16:08:58;23.50;97.60